»·PEaware :: N531TW KGJT-74V

N531TW :: KGJT-74V

FLIGHT INFORMATION

Flight Status: Arrived
Operator: Privately registered:
United States
More flights under this callsign
Pilot: Edson R. (15455)
Aircraft: BEECH AIRCRAFT BARON
(BE58)
More flights by this aircraft type
Origin: KGJT Walker
United States
Destination: 74V Roosevelt Mun
United States
More flights between these airports :: More routes between these airports
Route: +GRAND1 JNC V484 MTU
File this flight plan on PilotEdge
Remarks:
Altitude:
(Current/Filed)
15,000ft
Speed:
(Current/Filed)
150kts
Departed: 18-Dec-17 04:52 PM
Arrived: 18-Dec-17 05:36 PM
Distance/Time
Traveled:
99nm/0:44
Distance/Time
To Go:
Arrived

Flight Plot

Page will automatically refresh every two minutes.

Flight plan parsing failed; only flown route is shown


Map Options




Map Legend


Flown Route
Filed Route
Departure Airport
Arrival Airport
Navaid (VOR, NDB)
Fix

Horizontal Profiles

Position Reports

Time Latitude Longitude Heading Altitude Ground
Speed
18-Dec-17 16:48 39.121795 -108.523653 18 4858ft 0kts
18-Dec-17 16:49 39.121795 -108.523653 18 4858ft 0kts
18-Dec-17 16:50 39.121795 -108.523653 18 4858ft 0kts
18-Dec-17 16:51 39.121795 -108.523653 18 4858ft 0kts
18-Dec-17 16:52 39.121795 -108.523653 18 4858ft 0kts
18-Dec-17 16:53 39.121795 -108.523653 18 4858ft 0kts
18-Dec-17 16:54 39.121795 -108.523653 18 4858ft 0kts
18-Dec-17 16:55 39.121007 -108.521334 128 4858ft 23kts
18-Dec-17 16:56 39.118232 -108.516316 123 4858ft 0kts
18-Dec-17 16:57 39.118655 -108.514555 307 4858ft 11kts
18-Dec-17 16:58 39.119153 -108.515441 305 4858ft 43kts
18-Dec-17 16:59 39.134102 -108.550268 266 5415ft 133kts
18-Dec-17 17:00 39.106626 -108.566201 160 6102ft 158kts
18-Dec-17 17:01 39.070475 -108.565580 245 7093ft 143kts
18-Dec-17 17:02 39.074200 -108.615050 279 7947ft 142kts
18-Dec-17 17:03 39.080914 -108.664350 279 8753ft 141kts
18-Dec-17 17:04 39.087609 -108.713378 279 9516ft 139kts
18-Dec-17 17:05 39.094208 -108.761549 279 10270ft 136kts
18-Dec-17 17:06 39.100733 -108.809002 279 10947ft 135kts
18-Dec-17 17:07 39.111376 -108.853702 313 11556ft 135kts
18-Dec-17 17:08 39.137432 -108.887607 315 12138ft 134kts
18-Dec-17 17:09 39.163970 -108.921147 315 12680ft 134kts
18-Dec-17 17:10 39.190664 -108.954505 315 13197ft 135kts
18-Dec-17 17:11 39.217650 -108.988073 315 13706ft 134kts
18-Dec-17 17:12 39.245788 -109.023002 316 13858ft 154kts
18-Dec-17 17:13 39.277466 -109.062308 316 13853ft 165kts
18-Dec-17 17:14 39.310302 -109.103126 315 13852ft 168kts
18-Dec-17 17:15 39.342964 -109.143991 315 13852ft 169kts
18-Dec-17 17:16 39.376106 -109.185412 315 13851ft 170kts
18-Dec-17 17:17 39.409876 -109.227591 315 13851ft 170kts
18-Dec-17 17:18 39.443547 -109.269687 315 13851ft 170kts
18-Dec-17 17:19 39.477274 -109.311910 315 13851ft 170kts
18-Dec-17 17:20 39.511391 -109.354675 315 13852ft 173kts
18-Dec-17 17:21 39.545860 -109.397930 315 13852ft 174kts
18-Dec-17 17:22 39.579954 -109.440490 315 13851ft 174kts
18-Dec-17 17:23 39.614497 -109.483837 315 13851ft 174kts
18-Dec-17 17:24 39.650489 -109.524590 337 13854ft 173kts
18-Dec-17 17:25 39.689761 -109.559406 317 13852ft 174kts
18-Dec-17 17:26 39.725196 -109.602153 316 13852ft 174kts
18-Dec-17 17:27 39.760216 -109.644898 316 13851ft 174kts
18-Dec-17 17:28 39.795233 -109.687909 316 13851ft 175kts
18-Dec-17 17:29 39.830113 -109.730866 316 13851ft 175kts
18-Dec-17 17:30 39.864943 -109.773852 316 13851ft 175kts
18-Dec-17 17:31 39.900237 -109.817486 316 13833ft 175kts
18-Dec-17 17:32 39.935500 -109.861152 316 13833ft 175kts
18-Dec-17 17:33 39.970685 -109.904788 316 13833ft 175kts
18-Dec-17 17:34 40.005821 -109.948429 316 13833ft 175kts
18-Dec-17 17:35 40.040738 -109.991863 316 13833ft 175kts
18-Dec-17 17:36 40.075921 -110.035694 316 13833ft 175kts
18-Dec-17 17:37 40.111109 -110.079329 320 13840ft 175kts
18-Dec-17 17:38 40.145534 -110.125486 313 13228ft 195kts
18-Dec-17 17:39 40.194740 -110.119147 28 11723ft 209kts
18-Dec-17 17:40 40.247172 -110.087086 20 7706ft 204kts
18-Dec-17 17:41 40.277556 -110.060624 82 5177ft 88kts
18-Dec-17 17:42 40.277712 -110.049425 170 5173ft 17kts
18-Dec-17 17:43 40.277434 -110.048725 356 5172ft 0kts

Navigation Log

Ident Type
Flight plan parsing failed, navigation log unavailable